sensor_id;sensor_type;location;lat;lon;timestamp;P1;durP1;ratioP1;P2;durP2;ratioP2
51780;SDS011;37844;57.126;24.288;2023-08-20T00:01:33;9.82;;;6.75;;
51780;SDS011;37844;57.126;24.288;2023-08-20T00:04:17;15.05;;;7.85;;
51780;SDS011;37844;57.126;24.288;2023-08-20T00:07:02;11.75;;;6.40;;
51780;SDS011;37844;57.126;24.288;2023-08-20T00:09:47;11.95;;;6.57;;
51780;SDS011;37844;57.126;24.288;2023-08-20T00:12:31;9.85;;;7.45;;
51780;SDS011;37844;57.126;24.288;2023-08-20T00:15:15;13.57;;;7.32;;
51780;SDS011;37844;57.126;24.288;2023-08-20T00:17:59;17.38;;;7.45;;
51780;SDS011;37844;57.126;24.288;2023-08-20T00:20:43;14.25;;;7.38;;
51780;SDS011;37844;57.126;24.288;2023-08-20T00:23:29;13.57;;;7.43;;
51780;SDS011;37844;57.126;24.288;2023-08-20T00:26:13;9.88;;;7.63;;
51780;SDS011;37844;57.126;24.288;2023-08-20T00:28:58;9.23;;;7.53;;
51780;SDS011;37844;57.126;24.288;2023-08-20T00:31:42;11.35;;;7.10;;
51780;SDS011;37844;57.126;24.288;2023-08-20T00:34:26;11.60;;;7.10;;
51780;SDS011;37844;57.126;24.288;2023-08-20T00:37:10;17.38;;;7.90;;
51780;SDS011;37844;57.126;24.288;2023-08-20T00:39:54;10.77;;;7.30;;
51780;SDS011;37844;57.126;24.288;2023-08-20T00:42:38;12.32;;;6.70;;
51780;SDS011;37844;57.126;24.288;2023-08-20T00:45:23;11.00;;;6.93;;
51780;SDS011;37844;57.126;24.288;2023-08-20T00:48:07;8.15;;;6.13;;
51780;SDS011;37844;57.126;24.288;2023-08-20T00:50:52;9.32;;;6.65;;
51780;SDS011;37844;57.126;24.288;2023-08-20T00:53:36;9.57;;;6.40;;
51780;SDS011;37844;57.126;24.288;2023-08-20T00:56:20;9.60;;;5.90;;
51780;SDS011;37844;57.126;24.288;2023-08-20T00:59:05;11.35;;;6.00;;
51780;SDS011;37844;57.126;24.288;2023-08-20T01:01:49;12.00;;;6.72;;
51780;SDS011;37844;57.126;24.288;2023-08-20T01:04:34;10.60;;;6.55;;
51780;SDS011;37844;57.126;24.288;2023-08-20T01:13:54;10.60;;;6.28;;
51780;SDS011;37844;57.126;24.288;2023-08-20T01:16:38;10.30;;;5.85;;
51780;SDS011;37844;57.126;24.288;2023-08-20T01:19:22;16.77;;;6.47;;
51780;SDS011;37844;57.126;24.288;2023-08-20T01:28:32;10.20;;;6.57;;
51780;SDS011;37844;57.126;24.288;2023-08-20T01:31:17;18.75;;;10.32;;
51780;SDS011;37844;57.126;24.288;2023-08-20T01:34:03;16.23;;;7.65;;
51780;SDS011;37844;57.126;24.288;2023-08-20T01:36:47;9.93;;;6.78;;
51780;SDS011;37844;57.126;24.288;2023-08-20T01:39:31;11.15;;;6.30;;
51780;SDS011;37844;57.126;24.288;2023-08-20T01:42:15;9.80;;;7.13;;
51780;SDS011;37844;57.126;24.288;2023-08-20T01:44:59;10.75;;;6.80;;
51780;SDS011;37844;57.126;24.288;2023-08-20T01:47:43;10.55;;;5.65;;
51780;SDS011;37844;57.126;24.288;2023-08-20T01:50:27;11.48;;;7.07;;
51780;SDS011;37844;57.126;24.288;2023-08-20T01:53:11;12.98;;;7.00;;
51780;SDS011;37844;57.126;24.288;2023-08-20T01:55:55;11.10;;;7.20;;
51780;SDS011;37844;57.126;24.288;2023-08-20T01:58:39;11.55;;;6.82;;
51780;SDS011;37844;57.126;24.288;2023-08-20T02:01:24;9.75;;;6.25;;
51780;SDS011;37844;57.126;24.288;2023-08-20T02:04:08;17.45;;;8.88;;
51780;SDS011;37844;57.126;24.288;2023-08-20T02:06:52;9.93;;;7.03;;
51780;SDS011;37844;57.126;24.288;2023-08-20T02:09:36;13.75;;;8.05;;
51780;SDS011;37844;57.126;24.288;2023-08-20T02:12:20;16.15;;;7.38;;
51780;SDS011;37844;57.126;24.288;2023-08-20T02:15:05;24.05;;;8.18;;
51780;SDS011;37844;57.126;24.288;2023-08-20T02:17:50;12.95;;;7.10;;
51780;SDS011;37844;57.126;24.288;2023-08-20T02:20:34;9.02;;;7.05;;
51780;SDS011;37844;57.126;24.288;2023-08-20T02:23:18;13.68;;;7.60;;
51780;SDS011;37844;57.126;24.288;2023-08-20T02:26:02;12.60;;;9.25;;
51780;SDS011;37844;57.126;24.288;2023-08-20T02:28:46;11.48;;;7.75;;
51780;SDS011;37844;57.126;24.288;2023-08-20T02:31:30;15.93;;;7.93;;
51780;SDS011;37844;57.126;24.288;2023-08-20T02:34:14;11.00;;;7.20;;
51780;SDS011;37844;57.126;24.288;2023-08-20T02:36:58;14.63;;;7.93;;
51780;SDS011;37844;57.126;24.288;2023-08-20T02:39:42;10.50;;;7.38;;
51780;SDS011;37844;57.126;24.288;2023-08-20T02:42:26;9.57;;;7.35;;
51780;SDS011;37844;57.126;24.288;2023-08-20T02:45:10;10.02;;;6.35;;
51780;SDS011;37844;57.126;24.288;2023-08-20T02:47:54;26.70;;;8.18;;
51780;SDS011;37844;57.126;24.288;2023-08-20T02:50:38;11.90;;;6.88;;
51780;SDS011;37844;57.126;24.288;2023-08-20T02:53:22;10.13;;;7.03;;
51780;SDS011;37844;57.126;24.288;2023-08-20T02:56:06;12.55;;;7.60;;
51780;SDS011;37844;57.126;24.288;2023-08-20T02:58:50;16.10;;;7.60;;
51780;SDS011;37844;57.126;24.288;2023-08-20T03:01:34;10.32;;;7.07;;
51780;SDS011;37844;57.126;24.288;2023-08-20T03:04:19;17.15;;;7.18;;
51780;SDS011;37844;57.126;24.288;2023-08-20T03:07:04;9.68;;;6.32;;
51780;SDS011;37844;57.126;24.288;2023-08-20T03:09:48;9.05;;;5.57;;
51780;SDS011;37844;57.126;24.288;2023-08-20T03:12:32;10.77;;;6.75;;
51780;SDS011;37844;57.126;24.288;2023-08-20T03:15:16;14.80;;;7.03;;
51780;SDS011;37844;57.126;24.288;2023-08-20T03:18:00;12.52;;;6.95;;
51780;SDS011;37844;57.126;24.288;2023-08-20T03:20:44;10.32;;;6.95;;
51780;SDS011;37844;57.126;24.288;2023-08-20T03:23:28;8.82;;;6.57;;
51780;SDS011;37844;57.126;24.288;2023-08-20T03:26:12;19.17;;;7.35;;
51780;SDS011;37844;57.126;24.288;2023-08-20T03:28:57;9.95;;;7.28;;
51780;SDS011;37844;57.126;24.288;2023-08-20T03:31:41;10.90;;;6.85;;
51780;SDS011;37844;57.126;24.288;2023-08-20T03:34:25;16.88;;;6.43;;
51780;SDS011;37844;57.126;24.288;2023-08-20T03:37:09;12.27;;;6.85;;
51780;SDS011;37844;57.126;24.288;2023-08-20T03:39:53;10.57;;;7.03;;
51780;SDS011;37844;57.126;24.288;2023-08-20T03:42:37;12.07;;;6.45;;
51780;SDS011;37844;57.126;24.288;2023-08-20T03:45:21;9.05;;;5.68;;
51780;SDS011;37844;57.126;24.288;2023-08-20T03:48:05;9.85;;;6.97;;
51780;SDS011;37844;57.126;24.288;2023-08-20T03:50:49;12.25;;;6.32;;
51780;SDS011;37844;57.126;24.288;2023-08-20T03:53:33;9.63;;;6.40;;
51780;SDS011;37844;57.126;24.288;2023-08-20T03:56:17;15.32;;;7.63;;
51780;SDS011;37844;57.126;24.288;2023-08-20T03:59:01;9.68;;;6.22;;
51780;SDS011;37844;57.126;24.288;2023-08-20T04:01:46;11.73;;;7.38;;
51780;SDS011;37844;57.126;24.288;2023-08-20T04:04:30;23.10;;;7.78;;
51780;SDS011;37844;57.126;24.288;2023-08-20T04:07:15;10.52;;;6.47;;
51780;SDS011;37844;57.126;24.288;2023-08-20T04:09:59;9.80;;;6.68;;
51780;SDS011;37844;57.126;24.288;2023-08-20T04:12:43;11.23;;;6.22;;
51780;SDS011;37844;57.126;24.288;2023-08-20T04:15:27;9.90;;;6.13;;
51780;SDS011;37844;57.126;24.288;2023-08-20T04:18:11;12.57;;;6.22;;
51780;SDS011;37844;57.126;24.288;2023-08-20T04:20:55;12.88;;;7.10;;
51780;SDS011;37844;57.126;24.288;2023-08-20T04:23:41;11.00;;;6.03;;
51780;SDS011;37844;57.126;24.288;2023-08-20T04:26:25;13.63;;;6.55;;
51780;SDS011;37844;57.126;24.288;2023-08-20T04:29:09;12.95;;;5.65;;
51780;SDS011;37844;57.126;24.288;2023-08-20T04:31:53;11.73;;;6.13;;
51780;SDS011;37844;57.126;24.288;2023-08-20T04:34:37;11.90;;;6.25;;
51780;SDS011;37844;57.126;24.288;2023-08-20T04:37:21;7.03;;;4.70;;
51780;SDS011;37844;57.126;24.288;2023-08-20T04:40:05;17.30;;;6.90;;
51780;SDS011;37844;57.126;24.288;2023-08-20T04:42:51;9.23;;;5.63;;
51780;SDS011;37844;57.126;24.288;2023-08-20T04:45:35;12.77;;;5.80;;
51780;SDS011;37844;57.126;24.288;2023-08-20T04:48:19;13.38;;;6.13;;
51780;SDS011;37844;57.126;24.288;2023-08-20T04:51:05;20.85;;;6.38;;
51780;SDS011;37844;57.126;24.288;2023-08-20T04:53:49;14.82;;;5.70;;
51780;SDS011;37844;57.126;24.288;2023-08-20T04:56:34;13.65;;;6.25;;
51780;SDS011;37844;57.126;24.288;2023-08-20T04:59:18;10.63;;;5.55;;
51780;SDS011;37844;57.126;24.288;2023-08-20T05:02:02;10.75;;;5.82;;
51780;SDS011;37844;57.126;24.288;2023-08-20T05:04:46;14.93;;;6.07;;
51780;SDS011;37844;57.126;24.288;2023-08-20T05:07:29;8.90;;;5.75;;
51780;SDS011;37844;57.126;24.288;2023-08-20T05:10:14;10.43;;;5.18;;
51780;SDS011;37844;57.126;24.288;2023-08-20T05:12:58;9.25;;;5.03;;
51780;SDS011;37844;57.126;24.288;2023-08-20T05:15:42;8.68;;;5.80;;
51780;SDS011;37844;57.126;24.288;2023-08-20T05:18:25;11.02;;;5.03;;
51780;SDS011;37844;57.126;24.288;2023-08-20T05:21:10;8.27;;;4.63;;
51780;SDS011;37844;57.126;24.288;2023-08-20T05:23:57;10.10;;;6.13;;
51780;SDS011;37844;57.126;24.288;2023-08-20T05:26:41;7.72;;;4.72;;
51780;SDS011;37844;57.126;24.288;2023-08-20T05:29:25;9.15;;;5.10;;
51780;SDS011;37844;57.126;24.288;2023-08-20T05:32:09;10.57;;;4.55;;
51780;SDS011;37844;57.126;24.288;2023-08-20T05:34:53;8.20;;;4.63;;
51780;SDS011;37844;57.126;24.288;2023-08-20T05:37:37;6.53;;;4.35;;
51780;SDS011;37844;57.126;24.288;2023-08-20T05:40:21;10.40;;;4.82;;
51780;SDS011;37844;57.126;24.288;2023-08-20T05:43:05;7.18;;;3.67;;
51780;SDS011;37844;57.126;24.288;2023-08-20T05:45:49;9.07;;;4.07;;
51780;SDS011;37844;57.126;24.288;2023-08-20T05:48:33;8.77;;;3.67;;
51780;SDS011;37844;57.126;24.288;2023-08-20T05:51:17;4.97;;;3.15;;
51780;SDS011;37844;57.126;24.288;2023-08-20T05:54:01;9.25;;;3.55;;
51780;SDS011;37844;57.126;24.288;2023-08-20T05:56:45;5.80;;;3.58;;
51780;SDS011;37844;57.126;24.288;2023-08-20T05:59:29;6.05;;;3.25;;
51780;SDS011;37844;57.126;24.288;2023-08-20T06:02:16;5.65;;;3.20;;
51780;SDS011;37844;57.126;24.288;2023-08-20T06:05:04;9.23;;;3.80;;
51780;SDS011;37844;57.126;24.288;2023-08-20T06:07:48;7.30;;;3.67;;
51780;SDS011;37844;57.126;24.288;2023-08-20T06:10:32;5.47;;;3.33;;
51780;SDS011;37844;57.126;24.288;2023-08-20T06:13:16;5.80;;;3.42;;
51780;SDS011;37844;57.126;24.288;2023-08-20T06:16:00;11.77;;;3.80;;
51780;SDS011;37844;57.126;24.288;2023-08-20T06:18:44;6.60;;;3.53;;
51780;SDS011;37844;57.126;24.288;2023-08-20T06:21:28;8.68;;;3.50;;
51780;SDS011;37844;57.126;24.288;2023-08-20T06:24:12;11.63;;;4.10;;
51780;SDS011;37844;57.126;24.288;2023-08-20T06:26:56;6.80;;;3.25;;
51780;SDS011;37844;57.126;24.288;2023-08-20T06:29:40;9.48;;;2.92;;
51780;SDS011;37844;57.126;24.288;2023-08-20T06:32:24;12.07;;;4.10;;
51780;SDS011;37844;57.126;24.288;2023-08-20T06:35:08;11.60;;;4.00;;
51780;SDS011;37844;57.126;24.288;2023-08-20T06:37:53;8.98;;;3.97;;
51780;SDS011;37844;57.126;24.288;2023-08-20T06:40:37;9.38;;;3.15;;
51780;SDS011;37844;57.126;24.288;2023-08-20T06:43:21;8.75;;;3.90;;
51780;SDS011;37844;57.126;24.288;2023-08-20T06:46:05;12.50;;;3.80;;
51780;SDS011;37844;57.126;24.288;2023-08-20T06:48:49;12.90;;;3.85;;
51780;SDS011;37844;57.126;24.288;2023-08-20T06:51:33;7.25;;;3.60;;
51780;SDS011;37844;57.126;24.288;2023-08-20T06:54:17;12.00;;;3.58;;
51780;SDS011;37844;57.126;24.288;2023-08-20T06:57:01;8.00;;;3.63;;
51780;SDS011;37844;57.126;24.288;2023-08-20T06:59:45;5.60;;;3.58;;
51780;SDS011;37844;57.126;24.288;2023-08-20T07:02:29;8.25;;;3.30;;
51780;SDS011;37844;57.126;24.288;2023-08-20T07:05:14;11.40;;;3.53;;
51780;SDS011;37844;57.126;24.288;2023-08-20T07:07:58;11.30;;;3.38;;
51780;SDS011;37844;57.126;24.288;2023-08-20T07:10:42;5.10;;;2.92;;
51780;SDS011;37844;57.126;24.288;2023-08-20T07:13:26;8.60;;;3.10;;
51780;SDS011;37844;57.126;24.288;2023-08-20T07:16:10;10.23;;;3.60;;
51780;SDS011;37844;57.126;24.288;2023-08-20T07:18:54;8.75;;;3.47;;
51780;SDS011;37844;57.126;24.288;2023-08-20T07:21:38;4.20;;;2.70;;
51780;SDS011;37844;57.126;24.288;2023-08-20T07:24:22;6.97;;;2.83;;
51780;SDS011;37844;57.126;24.288;2023-08-20T07:27:09;6.93;;;2.70;;
51780;SDS011;37844;57.126;24.288;2023-08-20T07:29:56;6.07;;;3.03;;
51780;SDS011;37844;57.126;24.288;2023-08-20T07:32:40;5.10;;;2.78;;
51780;SDS011;37844;57.126;24.288;2023-08-20T07:35:24;4.55;;;2.80;;
51780;SDS011;37844;57.126;24.288;2023-08-20T07:38:08;8.98;;;3.38;;
51780;SDS011;37844;57.126;24.288;2023-08-20T07:40:52;6.97;;;3.50;;
51780;SDS011;37844;57.126;24.288;2023-08-20T07:43:40;5.43;;;2.72;;
51780;SDS011;37844;57.126;24.288;2023-08-20T07:46:24;4.50;;;2.85;;
51780;SDS011;37844;57.126;24.288;2023-08-20T07:49:08;11.30;;;3.33;;
51780;SDS011;37844;57.126;24.288;2023-08-20T07:51:52;5.93;;;3.10;;
51780;SDS011;37844;57.126;24.288;2023-08-20T07:54:38;8.50;;;3.85;;
51780;SDS011;37844;57.126;24.288;2023-08-20T07:57:28;8.02;;;3.90;;
51780;SDS011;37844;57.126;24.288;2023-08-20T08:00:13;5.35;;;3.38;;
51780;SDS011;37844;57.126;24.288;2023-08-20T08:02:57;13.27;;;3.88;;
51780;SDS011;37844;57.126;24.288;2023-08-20T08:05:48;7.97;;;3.65;;
51780;SDS011;37844;57.126;24.288;2023-08-20T08:08:37;13.95;;;4.03;;
51780;SDS011;37844;57.126;24.288;2023-08-20T08:11:25;6.75;;;3.45;;
51780;SDS011;37844;57.126;24.288;2023-08-20T08:14:09;10.77;;;4.38;;
51780;SDS011;37844;57.126;24.288;2023-08-20T08:16:55;4.75;;;3.22;;
51780;SDS011;37844;57.126;24.288;2023-08-20T08:19:39;5.75;;;3.55;;
51780;SDS011;37844;57.126;24.288;2023-08-20T08:22:23;5.88;;;3.90;;
51780;SDS011;37844;57.126;24.288;2023-08-20T08:25:07;8.40;;;4.15;;
51780;SDS011;37844;57.126;24.288;2023-08-20T08:27:51;11.32;;;4.40;;
51780;SDS011;37844;57.126;24.288;2023-08-20T08:30:36;7.95;;;3.83;;
51780;SDS011;37844;57.126;24.288;2023-08-20T08:33:21;10.30;;;4.68;;
51780;SDS011;37844;57.126;24.288;2023-08-20T08:36:05;7.05;;;4.13;;
51780;SDS011;37844;57.126;24.288;2023-08-20T08:38:49;9.40;;;4.20;;
51780;SDS011;37844;57.126;24.288;2023-08-20T08:41:33;10.55;;;4.53;;
51780;SDS011;37844;57.126;24.288;2023-08-20T08:44:22;11.80;;;5.13;;
51780;SDS011;37844;57.126;24.288;2023-08-20T08:47:07;8.88;;;4.80;;
51780;SDS011;37844;57.126;24.288;2023-08-20T08:49:51;9.38;;;5.05;;
51780;SDS011;37844;57.126;24.288;2023-08-20T08:52:37;11.13;;;4.90;;
51780;SDS011;37844;57.126;24.288;2023-08-20T08:55:23;9.65;;;5.38;;
51780;SDS011;37844;57.126;24.288;2023-08-20T08:58:07;8.98;;;4.60;;
51780;SDS011;37844;57.126;24.288;2023-08-20T09:00:51;11.25;;;5.55;;
51780;SDS011;37844;57.126;24.288;2023-08-20T09:03:36;9.23;;;5.40;;
51780;SDS011;37844;57.126;24.288;2023-08-20T09:06:20;8.32;;;5.32;;
51780;SDS011;37844;57.126;24.288;2023-08-20T09:09:04;7.60;;;4.82;;
51780;SDS011;37844;57.126;24.288;2023-08-20T09:11:50;7.03;;;5.10;;
51780;SDS011;37844;57.126;24.288;2023-08-20T09:14:34;10.85;;;6.13;;
51780;SDS011;37844;57.126;24.288;2023-08-20T09:17:18;9.18;;;5.43;;
51780;SDS011;37844;57.126;24.288;2023-08-20T09:20:05;10.18;;;6.15;;
51780;SDS011;37844;57.126;24.288;2023-08-20T09:22:50;9.65;;;5.57;;
51780;SDS011;37844;57.126;24.288;2023-08-20T09:25:34;13.27;;;6.32;;
51780;SDS011;37844;57.126;24.288;2023-08-20T09:28:18;10.55;;;6.70;;
51780;SDS011;37844;57.126;24.288;2023-08-20T09:31:02;9.70;;;5.55;;
51780;SDS011;37844;57.126;24.288;2023-08-20T09:36:38;8.65;;;5.25;;
51780;SDS011;37844;57.126;24.288;2023-08-20T09:39:22;12.57;;;5.57;;
51780;SDS011;37844;57.126;24.288;2023-08-20T09:42:08;20.95;;;6.47;;
51780;SDS011;37844;57.126;24.288;2023-08-20T09:44:53;7.88;;;4.95;;
51780;SDS011;37844;57.126;24.288;2023-08-20T09:47:37;13.75;;;6.05;;
51780;SDS011;37844;57.126;24.288;2023-08-20T09:50:23;9.68;;;4.40;;
51780;SDS011;37844;57.126;24.288;2023-08-20T09:56:15;7.80;;;4.70;;
51780;SDS011;37844;57.126;24.288;2023-08-20T09:59:12;9.27;;;5.55;;
51780;SDS011;37844;57.126;24.288;2023-08-20T10:01:57;11.93;;;4.80;;
51780;SDS011;37844;57.126;24.288;2023-08-20T10:04:43;9.88;;;4.93;;
51780;SDS011;37844;57.126;24.288;2023-08-20T10:07:28;8.48;;;4.72;;
51780;SDS011;37844;57.126;24.288;2023-08-20T10:10:16;13.00;;;6.13;;
51780;SDS011;37844;57.126;24.288;2023-08-20T10:13:01;10.48;;;5.45;;
51780;SDS011;37844;57.126;24.288;2023-08-20T10:15:46;10.68;;;5.45;;
51780;SDS011;37844;57.126;24.288;2023-08-20T10:18:31;9.85;;;5.88;;
51780;SDS011;37844;57.126;24.288;2023-08-20T10:21:21;10.27;;;6.22;;
51780;SDS011;37844;57.126;24.288;2023-08-20T10:24:08;9.52;;;5.35;;
51780;SDS011;37844;57.126;24.288;2023-08-20T10:27:53;12.15;;;5.95;;
51780;SDS011;37844;57.126;24.288;2023-08-20T10:30:20;14.48;;;5.93;;
51780;SDS011;37844;57.126;24.288;2023-08-20T10:33:09;12.48;;;6.65;;
51780;SDS011;37844;57.126;24.288;2023-08-20T10:35:54;9.77;;;6.25;;
51780;SDS011;37844;57.126;24.288;2023-08-20T10:38:38;12.35;;;7.13;;
51780;SDS011;37844;57.126;24.288;2023-08-20T10:41:26;7.40;;;5.32;;
51780;SDS011;37844;57.126;24.288;2023-08-20T10:44:11;10.75;;;5.93;;
51780;SDS011;37844;57.126;24.288;2023-08-20T10:46:54;9.35;;;5.78;;
51780;SDS011;37844;57.126;24.288;2023-08-20T10:49:39;15.05;;;7.45;;
51780;SDS011;37844;57.126;24.288;2023-08-20T10:52:23;9.57;;;7.10;;
51780;SDS011;37844;57.126;24.288;2023-08-20T10:55:07;10.95;;;5.25;;
51780;SDS011;37844;57.126;24.288;2023-08-20T10:57:56;8.95;;;6.50;;
51780;SDS011;37844;57.126;24.288;2023-08-20T11:00:42;11.75;;;6.05;;
51780;SDS011;37844;57.126;24.288;2023-08-20T11:03:26;9.30;;;6.45;;
51780;SDS011;37844;57.126;24.288;2023-08-20T11:06:11;8.73;;;6.00;;
51780;SDS011;37844;57.126;24.288;2023-08-20T11:08:56;12.80;;;6.60;;
51780;SDS011;37844;57.126;24.288;2023-08-20T11:11:41;10.00;;;6.45;;
51780;SDS011;37844;57.126;24.288;2023-08-20T11:14:25;12.25;;;6.70;;
51780;SDS011;37844;57.126;24.288;2023-08-20T11:17:09;10.27;;;5.95;;
51780;SDS011;37844;57.126;24.288;2023-08-20T11:19:54;11.23;;;6.55;;
51780;SDS011;37844;57.126;24.288;2023-08-20T11:22:38;11.20;;;7.90;;
51780;SDS011;37844;57.126;24.288;2023-08-20T11:25:23;21.77;;;7.60;;
51780;SDS011;37844;57.126;24.288;2023-08-20T11:28:07;9.27;;;7.13;;
51780;SDS011;37844;57.126;24.288;2023-08-20T11:30:51;9.80;;;6.85;;
51780;SDS011;37844;57.126;24.288;2023-08-20T11:33:37;12.93;;;7.85;;
51780;SDS011;37844;57.126;24.288;2023-08-20T11:36:21;11.45;;;6.18;;
51780;SDS011;37844;57.126;24.288;2023-08-20T11:39:05;10.60;;;7.47;;
51780;SDS011;37844;57.126;24.288;2023-08-20T11:41:49;10.75;;;6.93;;
51780;SDS011;37844;57.126;24.288;2023-08-20T11:44:41;8.85;;;6.10;;
51780;SDS011;37844;57.126;24.288;2023-08-20T11:47:28;9.77;;;7.15;;
51780;SDS011;37844;57.126;24.288;2023-08-20T11:50:12;11.55;;;6.57;;
51780;SDS011;37844;57.126;24.288;2023-08-20T11:52:56;11.73;;;6.88;;
51780;SDS011;37844;57.126;24.288;2023-08-20T11:55:40;9.00;;;6.75;;
51780;SDS011;37844;57.126;24.288;2023-08-20T11:58:25;9.73;;;6.93;;
51780;SDS011;37844;57.126;24.288;2023-08-20T12:01:13;23.60;;;7.47;;
51780;SDS011;37844;57.126;24.288;2023-08-20T12:04:00;10.50;;;7.05;;
51780;SDS011;37844;57.126;24.288;2023-08-20T12:06:52;13.32;;;7.65;;
51780;SDS011;37844;57.126;24.288;2023-08-20T12:09:48;12.45;;;6.68;;
51780;SDS011;37844;57.126;24.288;2023-08-20T12:12:34;14.98;;;6.97;;
51780;SDS011;37844;57.126;24.288;2023-08-20T12:15:18;10.73;;;7.15;;
51780;SDS011;37844;57.126;24.288;2023-08-20T12:18:03;10.40;;;7.15;;
51780;SDS011;37844;57.126;24.288;2023-08-20T12:20:48;11.65;;;7.03;;
51780;SDS011;37844;57.126;24.288;2023-08-20T12:23:32;18.23;;;6.75;;
51780;SDS011;37844;57.126;24.288;2023-08-20T12:26:16;10.95;;;6.93;;
51780;SDS011;37844;57.126;24.288;2023-08-20T12:29:00;9.23;;;6.82;;
51780;SDS011;37844;57.126;24.288;2023-08-20T12:31:44;10.50;;;7.38;;
51780;SDS011;37844;57.126;24.288;2023-08-20T12:34:28;12.50;;;7.53;;
51780;SDS011;37844;57.126;24.288;2023-08-20T12:37:12;8.82;;;6.70;;
51780;SDS011;37844;57.126;24.288;2023-08-20T12:39:56;11.27;;;7.43;;
51780;SDS011;37844;57.126;24.288;2023-08-20T12:42:40;9.65;;;7.18;;
51780;SDS011;37844;57.126;24.288;2023-08-20T12:45:24;10.55;;;6.68;;
51780;SDS011;37844;57.126;24.288;2023-08-20T12:48:08;16.70;;;7.57;;
51780;SDS011;37844;57.126;24.288;2023-08-20T12:50:53;13.57;;;7.85;;
51780;SDS011;37844;57.126;24.288;2023-08-20T12:53:37;9.13;;;7.38;;
51780;SDS011;37844;57.126;24.288;2023-08-20T12:56:22;9.52;;;6.80;;
51780;SDS011;37844;57.126;24.288;2023-08-20T12:59:05;14.68;;;7.93;;
51780;SDS011;37844;57.126;24.288;2023-08-20T13:01:49;10.05;;;7.15;;
51780;SDS011;37844;57.126;24.288;2023-08-20T13:04:34;11.35;;;7.53;;
51780;SDS011;37844;57.126;24.288;2023-08-20T13:07:18;13.98;;;7.70;;
51780;SDS011;37844;57.126;24.288;2023-08-20T13:10:03;11.68;;;6.88;;
51780;SDS011;37844;57.126;24.288;2023-08-20T13:12:48;9.68;;;6.97;;
51780;SDS011;37844;57.126;24.288;2023-08-20T13:15:34;10.60;;;7.63;;
51780;SDS011;37844;57.126;24.288;2023-08-20T13:18:19;10.70;;;7.63;;
51780;SDS011;37844;57.126;24.288;2023-08-20T13:21:03;14.90;;;7.15;;
51780;SDS011;37844;57.126;24.288;2023-08-20T13:23:47;8.93;;;6.38;;
51780;SDS011;37844;57.126;24.288;2023-08-20T13:26:31;10.73;;;7.57;;
51780;SDS011;37844;57.126;24.288;2023-08-20T13:29:15;9.57;;;7.03;;
51780;SDS011;37844;57.126;24.288;2023-08-20T13:31:59;12.82;;;7.72;;
51780;SDS011;37844;57.126;24.288;2023-08-20T13:34:44;11.05;;;6.47;;
51780;SDS011;37844;57.126;24.288;2023-08-20T13:37:28;9.40;;;6.35;;
51780;SDS011;37844;57.126;24.288;2023-08-20T13:40:14;10.32;;;7.10;;
51780;SDS011;37844;57.126;24.288;2023-08-20T13:42:58;12.38;;;6.45;;
51780;SDS011;37844;57.126;24.288;2023-08-20T13:45:42;12.27;;;7.38;;
51780;SDS011;37844;57.126;24.288;2023-08-20T13:48:26;10.65;;;6.43;;
51780;SDS011;37844;57.126;24.288;2023-08-20T13:51:11;10.75;;;7.80;;
51780;SDS011;37844;57.126;24.288;2023-08-20T13:53:55;14.55;;;7.80;;
51780;SDS011;37844;57.126;24.288;2023-08-20T13:56:39;13.60;;;7.55;;
51780;SDS011;37844;57.126;24.288;2023-08-20T13:59:23;9.52;;;6.28;;
51780;SDS011;37844;57.126;24.288;2023-08-20T14:02:08;9.80;;;7.32;;
51780;SDS011;37844;57.126;24.288;2023-08-20T14:04:52;10.80;;;7.05;;
51780;SDS011;37844;57.126;24.288;2023-08-20T14:07:36;8.63;;;5.93;;
51780;SDS011;37844;57.126;24.288;2023-08-20T14:10:20;10.00;;;6.78;;
51780;SDS011;37844;57.126;24.288;2023-08-20T14:13:04;9.10;;;6.32;;
51780;SDS011;37844;57.126;24.288;2023-08-20T14:15:47;11.32;;;6.30;;
51780;SDS011;37844;57.126;24.288;2023-08-20T14:18:31;10.40;;;6.47;;
51780;SDS011;37844;57.126;24.288;2023-08-20T14:21:15;17.15;;;7.50;;
51780;SDS011;37844;57.126;24.288;2023-08-20T14:24:00;8.88;;;5.88;;
51780;SDS011;37844;57.126;24.288;2023-08-20T14:26:44;9.85;;;6.95;;
51780;SDS011;37844;57.126;24.288;2023-08-20T14:29:28;12.75;;;6.90;;
51780;SDS011;37844;57.126;24.288;2023-08-20T14:32:12;19.70;;;7.10;;
51780;SDS011;37844;57.126;24.288;2023-08-20T14:34:56;12.82;;;6.43;;
51780;SDS011;37844;57.126;24.288;2023-08-20T14:37:40;10.13;;;6.93;;
51780;SDS011;37844;57.126;24.288;2023-08-20T14:40:24;16.65;;;7.43;;
51780;SDS011;37844;57.126;24.288;2023-08-20T14:43:08;12.32;;;6.40;;
51780;SDS011;37844;57.126;24.288;2023-08-20T14:45:52;10.07;;;6.22;;
51780;SDS011;37844;57.126;24.288;2023-08-20T14:48:38;10.60;;;7.15;;
51780;SDS011;37844;57.126;24.288;2023-08-20T14:51:25;11.02;;;6.13;;
51780;SDS011;37844;57.126;24.288;2023-08-20T14:54:09;8.20;;;5.70;;
51780;SDS011;37844;57.126;24.288;2023-08-20T14:56:53;8.65;;;6.30;;
51780;SDS011;37844;57.126;24.288;2023-08-20T14:59:37;11.65;;;6.63;;
51780;SDS011;37844;57.126;24.288;2023-08-20T15:02:21;10.70;;;6.93;;
51780;SDS011;37844;57.126;24.288;2023-08-20T15:05:05;8.18;;;5.78;;
51780;SDS011;37844;57.126;24.288;2023-08-20T15:07:49;9.68;;;6.35;;
51780;SDS011;37844;57.126;24.288;2023-08-20T15:10:33;10.25;;;6.85;;
51780;SDS011;37844;57.126;24.288;2023-08-20T15:13:17;14.38;;;6.70;;
51780;SDS011;37844;57.126;24.288;2023-08-20T15:16:01;17.23;;;11.43;;
51780;SDS011;37844;57.126;24.288;2023-08-20T15:18:45;13.63;;;7.60;;
51780;SDS011;37844;57.126;24.288;2023-08-20T15:21:29;9.80;;;7.03;;
51780;SDS011;37844;57.126;24.288;2023-08-20T15:24:13;9.32;;;7.05;;
51780;SDS011;37844;57.126;24.288;2023-08-20T15:26:57;12.07;;;6.65;;
51780;SDS011;37844;57.126;24.288;2023-08-20T15:29:41;9.75;;;7.22;;
51780;SDS011;37844;57.126;24.288;2023-08-20T15:32:25;15.30;;;7.95;;
51780;SDS011;37844;57.126;24.288;2023-08-20T15:35:10;11.50;;;7.60;;
51780;SDS011;37844;57.126;24.288;2023-08-20T15:37:54;16.42;;;7.43;;
51780;SDS011;37844;57.126;24.288;2023-08-20T15:40:38;11.48;;;7.63;;
51780;SDS011;37844;57.126;24.288;2023-08-20T15:43:23;14.25;;;7.32;;
51780;SDS011;37844;57.126;24.288;2023-08-20T15:46:07;14.38;;;7.13;;
51780;SDS011;37844;57.126;24.288;2023-08-20T15:48:52;10.77;;;6.95;;
51780;SDS011;37844;57.126;24.288;2023-08-20T15:51:36;9.75;;;6.53;;
51780;SDS011;37844;57.126;24.288;2023-08-20T15:54:20;15.32;;;8.70;;
51780;SDS011;37844;57.126;24.288;2023-08-20T15:57:04;13.85;;;8.18;;
51780;SDS011;37844;57.126;24.288;2023-08-20T15:59:48;11.57;;;6.57;;
51780;SDS011;37844;57.126;24.288;2023-08-20T16:02:32;11.07;;;8.27;;
51780;SDS011;37844;57.126;24.288;2023-08-20T16:05:16;9.32;;;6.85;;
51780;SDS011;37844;57.126;24.288;2023-08-20T16:08:01;15.40;;;9.38;;
51780;SDS011;37844;57.126;24.288;2023-08-20T16:10:45;12.93;;;8.35;;
51780;SDS011;37844;57.126;24.288;2023-08-20T16:13:30;17.45;;;8.60;;
51780;SDS011;37844;57.126;24.288;2023-08-20T16:16:14;15.13;;;7.82;;
51780;SDS011;37844;57.126;24.288;2023-08-20T16:19:02;16.08;;;9.38;;
51780;SDS011;37844;57.126;24.288;2023-08-20T16:21:46;11.10;;;8.52;;
51780;SDS011;37844;57.126;24.288;2023-08-20T16:24:30;14.73;;;8.18;;
51780;SDS011;37844;57.126;24.288;2023-08-20T16:27:14;12.63;;;8.43;;